Nearby METAR Reports

 

PAEN - Kenai, Alaska, USA
Distance from station: ESE 2mi, 4km
Updated: Sun, 25-Aug-2019 5:53pm AKDT
Clear
Clear
 Wind from SW
Wind: SW 9 mph , 15 km/h
Temperature: 63°F , 17°C
Dew Point: 52°F , 11°C
Humidity: 68%
Barometer: 29.95 inHg , 1014.2 hPa
Clouds: Clear
Visibility: 10 miles , 16 km
2019/08/26 01:53 PAEN 260153Z 22008KT 180V250 10SM CLR 17/11 A2995 RMK AO2 SLP146 T01670111
PASX - Soldotna, Alaska, USA
Distance from station: SE 12mi, 19km
Updated: Sun, 25-Aug-2019 5:56pm AKDT
Few Clouds
Few Clouds
 Wind from SW
Wind: SW 7 mph , 11 km/h
Temperature: 64°F , 18°C
Dew Point: 46°F , 8°C
Humidity: 52%
Barometer: 29.97 inHg , 1014.9 hPa
Clouds: Few Clouds
Visibility: 10 miles , 16 km
Cloud details: Few Clouds 10000 ft
2019/08/26 01:56 PASX 260156Z AUTO 23006KT 10SM FEW100 18/08 A2997 RMK AO2 SLP158 T01780083
 
PANC - Anchorage Intl, Alaska, USA
Distance from station: NE 59mi, 96km
Updated: Sun, 25-Aug-2019 6:41pm AKDT
Smoke, Haze, Overcast
Smoke, Haze, Overcast
 Wind from S
Wind: S 7 mph , 11 km/h
Temperature: 64°F , 18°C
Dew Point: 48°F , 9°C
Humidity: 56%
Barometer: 29.94 inHg , 1013.9 hPa
Summary: Smoke, Haze
Clouds: Overcast
Visibility: 2 1/2 miles , 4 km
Cloud details: Few Clouds 0 ft
Partly cloudy 3000 ft
Overcast 7500 ft
2019/08/26 02:41 PANC 260241Z 18006KT 2 1/2SM FU HZ FEW000 SCT030 OVC075 18/09 A2994 RMK AO2 FU FEW000 T01780089
PALH - Anchorage/Lake H, Alaska, USA
Distance from station: NE 61mi, 99km
Updated: Sun, 25-Aug-2019 6:43pm AKDT
Haze, Overcast
Haze, Overcast
 Wind from SSW
Wind: SSW 15 mph , 24 km/h, Gust: 23 mph , 37 km/h
Temperature: 64°F , 18°C
Dew Point: 46°F , 8°C
Humidity: 52%
Barometer: 29.95 inHg , 1014.2 hPa
Summary: Haze
Clouds: Overcast
Visibility: 2 miles , 3 km
Cloud details: Overcast 8000 ft
2019/08/26 02:43 PALH 260243Z 20013G20KT 2SM HZ OVC080 18/08 A2995 RMK AO2 T01780083 $
 
PAHO - Homer, Alaska, USA
Distance from station: S 66mi, 106km
Updated: Sun, 25-Aug-2019 5:53pm AKDT
Partly cloudy
Partly cloudy
 Wind from calm
Wind: Calm
Temperature: 63°F , 17°C
Dew Point: 46°F , 8°C
Humidity: 56%
Barometer: 29.96 inHg , 1014.6 hPa
Clouds: Partly cloudy
Visibility: 10 miles , 16 km
Cloud details: Partly cloudy 11000 ft
2019/08/26 01:53 PAHO 260153Z 00000KT 10SM SCT110 17/08 A2996 RMK AO2 SLP144 T01720078
PAMR - Anchorage/Merril, Alaska, USA
Distance from station: NE 66mi, 106km
Updated: Sun, 25-Aug-2019 5:53pm AKDT
Smoke, Mostly cloudy
Smoke, Mostly cloudy
 Wind from SW
Wind: SW 7 mph , 11 km/h
Temperature: 66°F , 19°C
Dew Point: 43°F , 6°C
Humidity: 43%
Barometer: 29.93 inHg , 1013.5 hPa
Summary: Smoke
Clouds: Mostly cloudy
Visibility: 8 miles , 13 km
Cloud details: Mostly cloudy 7000 ft
2019/08/26 01:53 PAMR 260153Z 22006KT 8SM FU BKN070 19/06 A2993 RMK AO2 SLP135 T01940056
 
PAED - Elmendorf Afb, Alaska, USA
Distance from station: NE 69mi, 110km
Updated: Sun, 25-Aug-2019 5:56pm AKDT
Smoke, Mostly cloudy
Smoke, Mostly cloudy
 Wind from WNW
Wind: WNW 10 mph , 17 km/h
Temperature: 64°F , 18°C
Dew Point: 48°F , 9°C
Humidity: 56%
Barometer: 29.93 inHg , 1013.5 hPa
Summary: Smoke
Clouds: Mostly cloudy
Visibility: 6 miles , 10 km
Cloud details: Mostly cloudy 6500 ft
2019/08/26 01:56 PAED 260156Z 29009KT 6SM FU BKN065 18/09 A2993 RMK AO2A SLP131 T01760090 $
PAWD - Seward, Alaska, USA
Distance from station: ESE 71mi, 115km
Updated: Sun, 25-Aug-2019 5:53pm AKDT
Clear
Clear
 Wind from S
Wind: S 13 mph , 20 km/h
Temperature: 63°F , 17°C
Dew Point: 52°F , 11°C
Humidity: 68%
Barometer: 29.99 inHg , 1015.6 hPa
Clouds: Clear
Visibility: 9 miles , 14 km
2019/08/26 01:53 PAWD 260153Z AUTO 18011KT 9SM CLR 17/11 A2999 RMK AO2 SLP156 T01670111 TSNO $
 
PASC - Deadhorse, Alaska, USA
Distance from station: ENE 670mi, 1078km
Updated: Sun, 25-Aug-2019 5:53pm AKDT
Light rain, Mist, Overcast
Light rain, Mist, Overcast
 Wind from WNW
Wind: WNW 12 mph , 19 km/h
Temperature: 45°F , 7°C
Wind Chill: 39°F , 4°C
Dew Point: 43°F , 6°C
Humidity: 93%
Barometer: 29.73 inHg , 1006.8 hPa
Summary: Light rain, Mist
Clouds: Overcast
Visibility: 6 miles , 10 km
Cloud details: Partly cloudy 1000 ft
Mostly cloudy 1400 ft
Overcast 2000 ft
2019/08/26 01:53 PASC 260153Z 29010KT 6SM -RA BR SCT010 BKN014 OVC020 07/06 A2973 RMK AO2 SLP067 T00670056 PNO $
PAAD - Point Thomson, Alaska, USA
Distance from station: ENE 680mi, 1094km
Updated: Sun, 25-Aug-2019 6:35pm AKDT
Overcast
Overcast
 Wind from W
Wind: W 12 mph , 19 km/h
Temperature: 43°F , 6°C
Wind Chill: 37°F , 3°C
Dew Point: 41°F , 5°C
Humidity: 93%
Barometer: 29.73 inHg , 1006.8 hPa
Clouds: Overcast
Visibility: 10 miles , 16 km
Cloud details: Mostly cloudy 400 ft
Overcast 1200 ft
2019/08/26 02:35 PAAD 260235Z AUTO 28010KT 10SM BKN004 OVC012 06/05 A2973 RMK AO2 T00550051


kenaipeople.com website

Dans Automotive

Lower Peninsula Power Sports

Freddies RoadHouse

Alaska Weather Net